sensor_id;sensor_type;location;lat;lon;timestamp;temperature;humidity
10282;DHT22;5186;59.472;18.048;2023-08-06T00:02:06;13.60;99.90
10282;DHT22;5186;59.472;18.048;2023-08-06T00:04:31;13.60;99.90
10282;DHT22;5186;59.472;18.048;2023-08-06T00:06:57;13.60;99.90
10282;DHT22;5186;59.472;18.048;2023-08-06T00:09:22;13.60;99.90
10282;DHT22;5186;59.472;18.048;2023-08-06T00:11:48;13.60;99.90
10282;DHT22;5186;59.472;18.048;2023-08-06T00:14:14;13.60;99.90
10282;DHT22;5186;59.472;18.048;2023-08-06T00:16:43;13.60;99.90
10282;DHT22;5186;59.472;18.048;2023-08-06T00:19:09;13.60;99.90
10282;DHT22;5186;59.472;18.048;2023-08-06T00:21:34;13.50;99.90
10282;DHT22;5186;59.472;18.048;2023-08-06T00:24:00;13.50;99.90
10282;DHT22;5186;59.472;18.048;2023-08-06T00:26:25;13.50;99.90
10282;DHT22;5186;59.472;18.048;2023-08-06T00:28:51;13.40;99.90
10282;DHT22;5186;59.472;18.048;2023-08-06T00:31:17;13.40;99.90
10282;DHT22;5186;59.472;18.048;2023-08-06T00:33:42;13.40;99.90
10282;DHT22;5186;59.472;18.048;2023-08-06T00:36:08;13.30;99.90
10282;DHT22;5186;59.472;18.048;2023-08-06T00:38:33;13.30;99.90
10282;DHT22;5186;59.472;18.048;2023-08-06T00:40:59;13.30;99.90
10282;DHT22;5186;59.472;18.048;2023-08-06T00:43:24;13.30;99.90
10282;DHT22;5186;59.472;18.048;2023-08-06T00:45:50;13.30;99.90
10282;DHT22;5186;59.472;18.048;2023-08-06T00:48:16;13.20;99.90
10282;DHT22;5186;59.472;18.048;2023-08-06T00:50:41;13.20;99.90
10282;DHT22;5186;59.472;18.048;2023-08-06T00:53:07;13.20;99.90
10282;DHT22;5186;59.472;18.048;2023-08-06T00:55:33;13.20;99.90
10282;DHT22;5186;59.472;18.048;2023-08-06T00:57:59;13.10;99.90
10282;DHT22;5186;59.472;18.048;2023-08-06T01:00:26;13.10;99.90
10282;DHT22;5186;59.472;18.048;2023-08-06T01:02:53;13.00;99.90
10282;DHT22;5186;59.472;18.048;2023-08-06T01:05:20;13.00;99.90
10282;DHT22;5186;59.472;18.048;2023-08-06T01:10:33;12.90;99.90
10282;DHT22;5186;59.472;18.048;2023-08-06T01:13:11;12.90;99.90
10282;DHT22;5186;59.472;18.048;2023-08-06T01:15:47;12.90;99.90
10282;DHT22;5186;59.472;18.048;2023-08-06T01:18:14;12.90;99.90
10282;DHT22;5186;59.472;18.048;2023-08-06T01:20:40;12.90;99.90
10282;DHT22;5186;59.472;18.048;2023-08-06T01:23:06;12.80;99.90
10282;DHT22;5186;59.472;18.048;2023-08-06T01:25:42;12.80;99.90
10282;DHT22;5186;59.472;18.048;2023-08-06T01:29:02;12.70;99.90
10282;DHT22;5186;59.472;18.048;2023-08-06T01:31:17;12.80;99.90
10282;DHT22;5186;59.472;18.048;2023-08-06T01:33:45;12.80;99.90
10282;DHT22;5186;59.472;18.048;2023-08-06T01:36:16;12.80;99.90
10282;DHT22;5186;59.472;18.048;2023-08-06T01:38:42;12.70;99.90
10282;DHT22;5186;59.472;18.048;2023-08-06T01:41:07;12.60;99.90
10282;DHT22;5186;59.472;18.048;2023-08-06T01:43:33;12.60;99.90
10282;DHT22;5186;59.472;18.048;2023-08-06T01:45:58;12.60;99.90
10282;DHT22;5186;59.472;18.048;2023-08-06T01:48:24;12.60;99.90
10282;DHT22;5186;59.472;18.048;2023-08-06T01:50:49;12.50;99.90
10282;DHT22;5186;59.472;18.048;2023-08-06T01:53:15;12.50;99.90
10282;DHT22;5186;59.472;18.048;2023-08-06T01:55:41;12.50;99.90
10282;DHT22;5186;59.472;18.048;2023-08-06T01:58:06;12.60;99.90
10282;DHT22;5186;59.472;18.048;2023-08-06T02:00:32;12.50;99.90
10282;DHT22;5186;59.472;18.048;2023-08-06T02:02:57;12.50;99.90
10282;DHT22;5186;59.472;18.048;2023-08-06T02:05:23;12.40;99.90
10282;DHT22;5186;59.472;18.048;2023-08-06T02:07:48;12.40;99.90
10282;DHT22;5186;59.472;18.048;2023-08-06T02:10:14;12.40;99.90
10282;DHT22;5186;59.472;18.048;2023-08-06T02:12:39;12.40;99.90
10282;DHT22;5186;59.472;18.048;2023-08-06T02:15:05;12.40;99.90
10282;DHT22;5186;59.472;18.048;2023-08-06T02:17:31;12.40;99.90
10282;DHT22;5186;59.472;18.048;2023-08-06T02:19:57;12.30;99.90
10282;DHT22;5186;59.472;18.048;2023-08-06T02:22:22;12.30;99.90
10282;DHT22;5186;59.472;18.048;2023-08-06T02:24:49;12.30;99.90
10282;DHT22;5186;59.472;18.048;2023-08-06T02:27:15;12.30;99.90
10282;DHT22;5186;59.472;18.048;2023-08-06T02:29:40;12.20;99.90
10282;DHT22;5186;59.472;18.048;2023-08-06T02:32:07;12.20;99.90
10282;DHT22;5186;59.472;18.048;2023-08-06T02:34:33;12.20;99.90
10282;DHT22;5186;59.472;18.048;2023-08-06T02:36:58;12.20;99.90
10282;DHT22;5186;59.472;18.048;2023-08-06T02:39:24;12.10;99.90
10282;DHT22;5186;59.472;18.048;2023-08-06T02:41:49;12.20;99.90
10282;DHT22;5186;59.472;18.048;2023-08-06T02:44:15;12.10;99.90
10282;DHT22;5186;59.472;18.048;2023-08-06T02:46:40;12.10;99.90
10282;DHT22;5186;59.472;18.048;2023-08-06T02:49:06;12.10;99.90
10282;DHT22;5186;59.472;18.048;2023-08-06T02:51:32;12.00;99.90
10282;DHT22;5186;59.472;18.048;2023-08-06T02:53:57;12.00;99.90
10282;DHT22;5186;59.472;18.048;2023-08-06T02:56:23;12.00;99.90
10282;DHT22;5186;59.472;18.048;2023-08-06T02:58:49;12.10;99.90
10282;DHT22;5186;59.472;18.048;2023-08-06T03:01:14;12.10;99.90
10282;DHT22;5186;59.472;18.048;2023-08-06T03:03:40;12.10;99.90
10282;DHT22;5186;59.472;18.048;2023-08-06T03:06:05;12.10;99.90
10282;DHT22;5186;59.472;18.048;2023-08-06T03:08:31;12.00;99.90
10282;DHT22;5186;59.472;18.048;2023-08-06T03:10:56;12.00;99.90
10282;DHT22;5186;59.472;18.048;2023-08-06T03:13:22;12.00;99.90
10282;DHT22;5186;59.472;18.048;2023-08-06T03:15:59;12.10;99.90
10282;DHT22;5186;59.472;18.048;2023-08-06T03:18:25;12.00;99.90
10282;DHT22;5186;59.472;18.048;2023-08-06T03:20:54;12.00;99.90
10282;DHT22;5186;59.472;18.048;2023-08-06T03:23:20;12.00;99.90
10282;DHT22;5186;59.472;18.048;2023-08-06T03:25:46;12.00;99.90
10282;DHT22;5186;59.472;18.048;2023-08-06T03:28:11;12.00;99.90
10282;DHT22;5186;59.472;18.048;2023-08-06T03:30:38;12.10;99.90
10282;DHT22;5186;59.472;18.048;2023-08-06T03:33:03;12.10;99.90
10282;DHT22;5186;59.472;18.048;2023-08-06T03:35:29;12.10;99.90
10282;DHT22;5186;59.472;18.048;2023-08-06T03:37:55;12.10;99.90
10282;DHT22;5186;59.472;18.048;2023-08-06T03:40:20;12.10;99.90
10282;DHT22;5186;59.472;18.048;2023-08-06T03:42:46;12.10;99.90
10282;DHT22;5186;59.472;18.048;2023-08-06T03:45:11;12.10;99.90
10282;DHT22;5186;59.472;18.048;2023-08-06T03:47:37;12.20;99.90
10282;DHT22;5186;59.472;18.048;2023-08-06T03:50:03;12.10;99.90
10282;DHT22;5186;59.472;18.048;2023-08-06T03:52:28;12.20;99.90
10282;DHT22;5186;59.472;18.048;2023-08-06T03:54:54;12.20;99.90
10282;DHT22;5186;59.472;18.048;2023-08-06T03:57:19;12.20;99.90
10282;DHT22;5186;59.472;18.048;2023-08-06T03:59:45;12.30;99.90
10282;DHT22;5186;59.472;18.048;2023-08-06T04:02:10;12.40;99.90
10282;DHT22;5186;59.472;18.048;2023-08-06T04:04:36;12.40;99.90
10282;DHT22;5186;59.472;18.048;2023-08-06T04:07:02;12.50;99.90
10282;DHT22;5186;59.472;18.048;2023-08-06T04:09:30;12.50;99.90
10282;DHT22;5186;59.472;18.048;2023-08-06T04:11:56;12.50;99.90
10282;DHT22;5186;59.472;18.048;2023-08-06T04:14:25;12.50;99.90
10282;DHT22;5186;59.472;18.048;2023-08-06T04:16:51;12.60;99.90
10282;DHT22;5186;59.472;18.048;2023-08-06T04:19:17;12.70;99.90
10282;DHT22;5186;59.472;18.048;2023-08-06T04:21:42;12.80;99.90
10282;DHT22;5186;59.472;18.048;2023-08-06T04:24:08;12.80;99.90
10282;DHT22;5186;59.472;18.048;2023-08-06T04:26:33;12.90;99.90
10282;DHT22;5186;59.472;18.048;2023-08-06T04:28:59;12.90;99.90
10282;DHT22;5186;59.472;18.048;2023-08-06T04:31:24;13.10;99.90
10282;DHT22;5186;59.472;18.048;2023-08-06T04:33:50;13.10;99.90
10282;DHT22;5186;59.472;18.048;2023-08-06T04:36:15;13.20;99.90
10282;DHT22;5186;59.472;18.048;2023-08-06T04:38:41;13.30;99.90
10282;DHT22;5186;59.472;18.048;2023-08-06T04:41:10;13.30;99.90
10282;DHT22;5186;59.472;18.048;2023-08-06T04:43:36;13.40;99.90
10282;DHT22;5186;59.472;18.048;2023-08-06T04:46:02;13.60;99.90
10282;DHT22;5186;59.472;18.048;2023-08-06T04:48:28;13.60;99.90
10282;DHT22;5186;59.472;18.048;2023-08-06T04:50:53;13.70;99.90
10282;DHT22;5186;59.472;18.048;2023-08-06T04:53:19;13.80;99.90
10282;DHT22;5186;59.472;18.048;2023-08-06T04:55:45;13.80;99.90
10282;DHT22;5186;59.472;18.048;2023-08-06T04:58:11;13.80;99.90
10282;DHT22;5186;59.472;18.048;2023-08-06T05:00:37;13.80;99.90
10282;DHT22;5186;59.472;18.048;2023-08-06T05:03:03;13.90;99.90
10282;DHT22;5186;59.472;18.048;2023-08-06T05:05:28;14.00;99.90
10282;DHT22;5186;59.472;18.048;2023-08-06T05:07:57;14.00;99.90
10282;DHT22;5186;59.472;18.048;2023-08-06T05:10:26;14.10;99.90
10282;DHT22;5186;59.472;18.048;2023-08-06T05:12:52;14.20;99.90
10282;DHT22;5186;59.472;18.048;2023-08-06T05:15:18;14.30;99.90
10282;DHT22;5186;59.472;18.048;2023-08-06T05:17:44;14.40;99.90
10282;DHT22;5186;59.472;18.048;2023-08-06T05:20:10;14.50;99.90
10282;DHT22;5186;59.472;18.048;2023-08-06T05:22:36;14.60;99.90
10282;DHT22;5186;59.472;18.048;2023-08-06T05:25:02;14.60;99.90
10282;DHT22;5186;59.472;18.048;2023-08-06T05:27:27;14.70;99.90
10282;DHT22;5186;59.472;18.048;2023-08-06T05:29:55;14.80;99.90
10282;DHT22;5186;59.472;18.048;2023-08-06T05:32:21;14.90;99.90
10282;DHT22;5186;59.472;18.048;2023-08-06T05:34:47;14.90;99.90
10282;DHT22;5186;59.472;18.048;2023-08-06T05:37:12;15.00;99.90
10282;DHT22;5186;59.472;18.048;2023-08-06T05:39:38;15.10;99.90
10282;DHT22;5186;59.472;18.048;2023-08-06T05:42:04;15.20;99.90
10282;DHT22;5186;59.472;18.048;2023-08-06T05:44:29;15.30;99.90
10282;DHT22;5186;59.472;18.048;2023-08-06T05:46:55;15.30;99.90
10282;DHT22;5186;59.472;18.048;2023-08-06T05:49:21;15.50;99.90
10282;DHT22;5186;59.472;18.048;2023-08-06T05:51:47;15.50;99.90
10282;DHT22;5186;59.472;18.048;2023-08-06T05:54:12;15.70;99.90
10282;DHT22;5186;59.472;18.048;2023-08-06T05:56:38;15.70;99.90
10282;DHT22;5186;59.472;18.048;2023-08-06T05:59:03;15.80;99.90
10282;DHT22;5186;59.472;18.048;2023-08-06T06:01:29;16.00;99.90
10282;DHT22;5186;59.472;18.048;2023-08-06T06:03:54;16.10;99.90
10282;DHT22;5186;59.472;18.048;2023-08-06T06:06:20;16.20;99.90
10282;DHT22;5186;59.472;18.048;2023-08-06T06:08:46;16.20;99.90
10282;DHT22;5186;59.472;18.048;2023-08-06T06:11:11;16.40;99.90
10282;DHT22;5186;59.472;18.048;2023-08-06T06:13:37;16.40;99.90
10282;DHT22;5186;59.472;18.048;2023-08-06T06:16:02;16.50;99.90
10282;DHT22;5186;59.472;18.048;2023-08-06T06:18:28;16.60;99.90
10282;DHT22;5186;59.472;18.048;2023-08-06T06:20:53;16.70;99.90
10282;DHT22;5186;59.472;18.048;2023-08-06T06:23:19;16.80;99.90
10282;DHT22;5186;59.472;18.048;2023-08-06T06:25:49;16.90;99.90
10282;DHT22;5186;59.472;18.048;2023-08-06T06:28:17;16.90;99.90
10282;DHT22;5186;59.472;18.048;2023-08-06T06:30:43;17.00;99.90
10282;DHT22;5186;59.472;18.048;2023-08-06T06:33:08;17.10;99.90
10282;DHT22;5186;59.472;18.048;2023-08-06T06:35:34;17.20;99.90
10282;DHT22;5186;59.472;18.048;2023-08-06T06:37:59;17.30;99.90
10282;DHT22;5186;59.472;18.048;2023-08-06T06:40:25;17.40;99.90
10282;DHT22;5186;59.472;18.048;2023-08-06T06:42:51;17.50;99.90
10282;DHT22;5186;59.472;18.048;2023-08-06T06:45:17;17.60;99.90
10282;DHT22;5186;59.472;18.048;2023-08-06T06:47:42;17.70;99.90
10282;DHT22;5186;59.472;18.048;2023-08-06T06:50:08;17.70;99.90
10282;DHT22;5186;59.472;18.048;2023-08-06T06:52:34;17.80;99.90
10282;DHT22;5186;59.472;18.048;2023-08-06T06:54:59;17.80;99.90
10282;DHT22;5186;59.472;18.048;2023-08-06T06:57:25;17.90;99.90
10282;DHT22;5186;59.472;18.048;2023-08-06T06:59:50;18.00;99.90
10282;DHT22;5186;59.472;18.048;2023-08-06T07:02:16;18.10;99.90
10282;DHT22;5186;59.472;18.048;2023-08-06T07:04:41;18.20;99.90
10282;DHT22;5186;59.472;18.048;2023-08-06T07:07:07;18.30;99.90
10282;DHT22;5186;59.472;18.048;2023-08-06T07:09:33;18.30;99.90
10282;DHT22;5186;59.472;18.048;2023-08-06T07:11:58;18.40;99.90
10282;DHT22;5186;59.472;18.048;2023-08-06T07:14:28;18.50;99.90
10282;DHT22;5186;59.472;18.048;2023-08-06T07:16:54;18.60;99.90
10282;DHT22;5186;59.472;18.048;2023-08-06T07:19:20;18.70;99.90
10282;DHT22;5186;59.472;18.048;2023-08-06T07:21:45;18.80;99.90
10282;DHT22;5186;59.472;18.048;2023-08-06T07:24:11;18.80;99.90
10282;DHT22;5186;59.472;18.048;2023-08-06T07:26:37;18.80;99.90
10282;DHT22;5186;59.472;18.048;2023-08-06T07:29:03;18.90;99.90
10282;DHT22;5186;59.472;18.048;2023-08-06T07:31:28;19.00;99.90
10282;DHT22;5186;59.472;18.048;2023-08-06T07:33:54;19.00;99.90
10282;DHT22;5186;59.472;18.048;2023-08-06T07:36:19;19.00;99.90
10282;DHT22;5186;59.472;18.048;2023-08-06T07:38:45;19.10;99.90
10282;DHT22;5186;59.472;18.048;2023-08-06T07:41:11;19.10;99.90
10282;DHT22;5186;59.472;18.048;2023-08-06T07:43:36;19.10;99.90
10282;DHT22;5186;59.472;18.048;2023-08-06T07:46:02;19.20;99.90
10282;DHT22;5186;59.472;18.048;2023-08-06T07:48:28;19.20;99.90
10282;DHT22;5186;59.472;18.048;2023-08-06T07:50:55;19.30;99.90
10282;DHT22;5186;59.472;18.048;2023-08-06T07:53:25;19.40;99.90
10282;DHT22;5186;59.472;18.048;2023-08-06T07:55:55;19.40;99.90
10282;DHT22;5186;59.472;18.048;2023-08-06T07:58:21;19.50;99.90
10282;DHT22;5186;59.472;18.048;2023-08-06T08:00:46;19.60;99.90
10282;DHT22;5186;59.472;18.048;2023-08-06T08:03:12;19.60;99.90
10282;DHT22;5186;59.472;18.048;2023-08-06T08:05:42;19.70;99.90
10282;DHT22;5186;59.472;18.048;2023-08-06T08:08:08;19.80;99.90
10282;DHT22;5186;59.472;18.048;2023-08-06T08:10:34;19.80;99.90
10282;DHT22;5186;59.472;18.048;2023-08-06T08:13:03;19.90;99.90
10282;DHT22;5186;59.472;18.048;2023-08-06T08:15:30;19.90;99.90
10282;DHT22;5186;59.472;18.048;2023-08-06T08:17:56;19.90;99.90
10282;DHT22;5186;59.472;18.048;2023-08-06T08:20:22;19.90;99.90
10282;DHT22;5186;59.472;18.048;2023-08-06T08:22:48;19.90;99.90
10282;DHT22;5186;59.472;18.048;2023-08-06T08:25:14;20.00;99.90
10282;DHT22;5186;59.472;18.048;2023-08-06T08:27:40;20.20;99.90
10282;DHT22;5186;59.472;18.048;2023-08-06T08:30:06;20.20;99.90
10282;DHT22;5186;59.472;18.048;2023-08-06T08:32:32;20.20;99.90
10282;DHT22;5186;59.472;18.048;2023-08-06T08:34:57;20.20;99.90
10282;DHT22;5186;59.472;18.048;2023-08-06T08:37:23;20.30;99.90
10282;DHT22;5186;59.472;18.048;2023-08-06T08:39:49;20.30;99.90
10282;DHT22;5186;59.472;18.048;2023-08-06T08:42:15;20.30;99.90
10282;DHT22;5186;59.472;18.048;2023-08-06T08:44:42;20.40;99.90
10282;DHT22;5186;59.472;18.048;2023-08-06T08:47:09;20.40;99.90
10282;DHT22;5186;59.472;18.048;2023-08-06T08:49:36;20.40;99.90
10282;DHT22;5186;59.472;18.048;2023-08-06T08:52:03;20.50;99.90
10282;DHT22;5186;59.472;18.048;2023-08-06T08:54:32;20.50;99.90
10282;DHT22;5186;59.472;18.048;2023-08-06T08:56:58;20.60;99.90
10282;DHT22;5186;59.472;18.048;2023-08-06T08:59:24;20.60;99.90
10282;DHT22;5186;59.472;18.048;2023-08-06T09:01:50;20.60;99.90
10282;DHT22;5186;59.472;18.048;2023-08-06T09:04:17;20.60;99.90
10282;DHT22;5186;59.472;18.048;2023-08-06T09:06:46;20.60;99.90
10282;DHT22;5186;59.472;18.048;2023-08-06T09:09:17;20.70;99.90
10282;DHT22;5186;59.472;18.048;2023-08-06T09:11:48;20.70;99.90
10282;DHT22;5186;59.472;18.048;2023-08-06T09:14:14;20.70;99.90
10282;DHT22;5186;59.472;18.048;2023-08-06T09:16:40;20.80;99.90
10282;DHT22;5186;59.472;18.048;2023-08-06T09:19:13;20.80;99.90
10282;DHT22;5186;59.472;18.048;2023-08-06T09:21:41;20.80;99.90
10282;DHT22;5186;59.472;18.048;2023-08-06T09:24:11;20.90;99.90
10282;DHT22;5186;59.472;18.048;2023-08-06T09:26:37;20.90;99.90
10282;DHT22;5186;59.472;18.048;2023-08-06T09:29:05;20.90;99.90
10282;DHT22;5186;59.472;18.048;2023-08-06T09:31:33;20.90;99.90
10282;DHT22;5186;59.472;18.048;2023-08-06T09:34:00;20.90;99.90
10282;DHT22;5186;59.472;18.048;2023-08-06T09:36:27;20.90;99.90
10282;DHT22;5186;59.472;18.048;2023-08-06T09:38:52;20.80;99.90
10282;DHT22;5186;59.472;18.048;2023-08-06T09:41:27;20.80;99.90
10282;DHT22;5186;59.472;18.048;2023-08-06T09:43:56;20.80;99.90
10282;DHT22;5186;59.472;18.048;2023-08-06T09:46:21;20.80;99.90
10282;DHT22;5186;59.472;18.048;2023-08-06T09:48:47;20.80;99.90
10282;DHT22;5186;59.472;18.048;2023-08-06T09:51:14;20.80;99.90
10282;DHT22;5186;59.472;18.048;2023-08-06T09:53:40;20.80;99.90
10282;DHT22;5186;59.472;18.048;2023-08-06T09:56:06;20.80;99.90
10282;DHT22;5186;59.472;18.048;2023-08-06T09:58:32;20.70;99.90
10282;DHT22;5186;59.472;18.048;2023-08-06T10:00:59;20.70;99.90
10282;DHT22;5186;59.472;18.048;2023-08-06T10:03:27;20.70;99.90
10282;DHT22;5186;59.472;18.048;2023-08-06T10:05:53;20.60;99.90
10282;DHT22;5186;59.472;18.048;2023-08-06T10:08:20;20.60;99.90
10282;DHT22;5186;59.472;18.048;2023-08-06T10:10:46;20.50;99.90
10282;DHT22;5186;59.472;18.048;2023-08-06T10:13:13;20.50;99.90
10282;DHT22;5186;59.472;18.048;2023-08-06T10:15:39;20.50;99.90
10282;DHT22;5186;59.472;18.048;2023-08-06T10:18:06;20.50;99.90
10282;DHT22;5186;59.472;18.048;2023-08-06T10:20:35;20.50;99.90
10282;DHT22;5186;59.472;18.048;2023-08-06T10:23:06;20.50;99.90
10282;DHT22;5186;59.472;18.048;2023-08-06T10:25:40;20.40;99.90
10282;DHT22;5186;59.472;18.048;2023-08-06T10:28:10;20.40;99.90
10282;DHT22;5186;59.472;18.048;2023-08-06T10:30:45;20.40;99.90
10282;DHT22;5186;59.472;18.048;2023-08-06T10:33:11;20.30;99.90
10282;DHT22;5186;59.472;18.048;2023-08-06T10:38:05;20.20;99.90
10282;DHT22;5186;59.472;18.048;2023-08-06T10:40:32;20.10;99.90
10282;DHT22;5186;59.472;18.048;2023-08-06T10:43:02;20.10;99.90
10282;DHT22;5186;59.472;18.048;2023-08-06T10:45:28;20.00;99.90
10282;DHT22;5186;59.472;18.048;2023-08-06T10:47:56;20.00;99.90
10282;DHT22;5186;59.472;18.048;2023-08-06T10:50:22;19.90;99.90
10282;DHT22;5186;59.472;18.048;2023-08-06T10:52:49;19.90;99.90
10282;DHT22;5186;59.472;18.048;2023-08-06T10:55:24;19.80;99.90
10282;DHT22;5186;59.472;18.048;2023-08-06T10:57:50;19.70;99.90
10282;DHT22;5186;59.472;18.048;2023-08-06T11:00:16;19.70;99.90
10282;DHT22;5186;59.472;18.048;2023-08-06T11:02:41;19.70;99.90
10282;DHT22;5186;59.472;18.048;2023-08-06T11:05:08;19.70;99.90
10282;DHT22;5186;59.472;18.048;2023-08-06T11:07:35;19.70;99.90
10282;DHT22;5186;59.472;18.048;2023-08-06T11:10:03;19.70;99.90
10282;DHT22;5186;59.472;18.048;2023-08-06T11:12:29;19.60;99.90
10282;DHT22;5186;59.472;18.048;2023-08-06T11:14:55;19.60;99.90
10282;DHT22;5186;59.472;18.048;2023-08-06T11:17:21;19.50;99.90
10282;DHT22;5186;59.472;18.048;2023-08-06T11:19:47;19.50;99.90
10282;DHT22;5186;59.472;18.048;2023-08-06T11:22:14;19.50;99.90
10282;DHT22;5186;59.472;18.048;2023-08-06T11:24:39;19.50;99.90
10282;DHT22;5186;59.472;18.048;2023-08-06T11:27:12;19.50;99.90
10282;DHT22;5186;59.472;18.048;2023-08-06T11:29:38;19.50;99.90
10282;DHT22;5186;59.472;18.048;2023-08-06T11:32:05;19.50;99.90
10282;DHT22;5186;59.472;18.048;2023-08-06T11:34:30;19.50;99.90
10282;DHT22;5186;59.472;18.048;2023-08-06T11:36:57;19.40;99.90
10282;DHT22;5186;59.472;18.048;2023-08-06T11:39:23;19.40;99.90
10282;DHT22;5186;59.472;18.048;2023-08-06T11:41:49;19.30;99.90
10282;DHT22;5186;59.472;18.048;2023-08-06T11:44:14;19.30;99.90
10282;DHT22;5186;59.472;18.048;2023-08-06T11:46:50;19.20;99.90
10282;DHT22;5186;59.472;18.048;2023-08-06T11:49:17;19.20;99.90
10282;DHT22;5186;59.472;18.048;2023-08-06T11:51:47;19.20;99.90
10282;DHT22;5186;59.472;18.048;2023-08-06T11:54:13;19.20;99.90
10282;DHT22;5186;59.472;18.048;2023-08-06T11:56:38;19.10;99.90
10282;DHT22;5186;59.472;18.048;2023-08-06T11:59:04;19.10;99.90
10282;DHT22;5186;59.472;18.048;2023-08-06T12:01:31;19.10;99.90
10282;DHT22;5186;59.472;18.048;2023-08-06T12:04:00;19.10;99.90
10282;DHT22;5186;59.472;18.048;2023-08-06T12:06:28;19.10;99.90
10282;DHT22;5186;59.472;18.048;2023-08-06T12:08:54;19.00;99.90
10282;DHT22;5186;59.472;18.048;2023-08-06T12:11:21;19.00;99.90
10282;DHT22;5186;59.472;18.048;2023-08-06T12:13:51;18.90;99.90
10282;DHT22;5186;59.472;18.048;2023-08-06T12:16:17;18.90;99.90
10282;DHT22;5186;59.472;18.048;2023-08-06T12:18:44;18.90;99.90
10282;DHT22;5186;59.472;18.048;2023-08-06T12:21:10;18.80;99.90
10282;DHT22;5186;59.472;18.048;2023-08-06T12:23:35;18.80;99.90
10282;DHT22;5186;59.472;18.048;2023-08-06T12:26:01;18.80;99.90
10282;DHT22;5186;59.472;18.048;2023-08-06T12:28:27;18.80;99.90
10282;DHT22;5186;59.472;18.048;2023-08-06T12:30:52;18.80;99.90
10282;DHT22;5186;59.472;18.048;2023-08-06T12:33:20;18.80;99.90
10282;DHT22;5186;59.472;18.048;2023-08-06T12:35:46;18.80;99.90
10282;DHT22;5186;59.472;18.048;2023-08-06T12:38:11;18.70;99.90
10282;DHT22;5186;59.472;18.048;2023-08-06T12:40:38;18.70;99.90
10282;DHT22;5186;59.472;18.048;2023-08-06T12:43:04;18.80;99.90
10282;DHT22;5186;59.472;18.048;2023-08-06T12:45:30;18.70;99.90
10282;DHT22;5186;59.472;18.048;2023-08-06T12:47:56;18.70;99.90
10282;DHT22;5186;59.472;18.048;2023-08-06T12:50:21;18.70;99.90
10282;DHT22;5186;59.472;18.048;2023-08-06T12:52:47;18.70;99.90
10282;DHT22;5186;59.472;18.048;2023-08-06T12:55:12;18.60;99.90
10282;DHT22;5186;59.472;18.048;2023-08-06T12:57:38;18.70;99.90
10282;DHT22;5186;59.472;18.048;2023-08-06T13:00:04;18.70;99.90
10282;DHT22;5186;59.472;18.048;2023-08-06T13:02:30;18.60;99.90
10282;DHT22;5186;59.472;18.048;2023-08-06T13:04:56;18.60;99.90
10282;DHT22;5186;59.472;18.048;2023-08-06T13:07:21;18.50;99.90
10282;DHT22;5186;59.472;18.048;2023-08-06T13:09:47;18.50;99.90
10282;DHT22;5186;59.472;18.048;2023-08-06T13:12:12;18.50;99.90
10282;DHT22;5186;59.472;18.048;2023-08-06T13:14:38;18.50;99.90
10282;DHT22;5186;59.472;18.048;2023-08-06T13:17:03;18.50;99.90
10282;DHT22;5186;59.472;18.048;2023-08-06T13:19:32;18.40;99.90
10282;DHT22;5186;59.472;18.048;2023-08-06T13:22:02;18.40;99.90
10282;DHT22;5186;59.472;18.048;2023-08-06T13:24:29;18.40;99.90
10282;DHT22;5186;59.472;18.048;2023-08-06T13:26:55;18.30;99.90
10282;DHT22;5186;59.472;18.048;2023-08-06T13:29:20;18.30;99.90
10282;DHT22;5186;59.472;18.048;2023-08-06T13:31:46;18.20;99.90
10282;DHT22;5186;59.472;18.048;2023-08-06T13:34:11;18.30;99.90
10282;DHT22;5186;59.472;18.048;2023-08-06T13:36:37;18.30;99.90
10282;DHT22;5186;59.472;18.048;2023-08-06T13:39:03;18.30;99.90
10282;DHT22;5186;59.472;18.048;2023-08-06T13:41:30;18.30;99.90
10282;DHT22;5186;59.472;18.048;2023-08-06T13:43:56;18.30;99.90
10282;DHT22;5186;59.472;18.048;2023-08-06T13:46:21;18.20;99.90
10282;DHT22;5186;59.472;18.048;2023-08-06T13:48:48;18.20;99.90
10282;DHT22;5186;59.472;18.048;2023-08-06T13:51:16;18.20;99.90
10282;DHT22;5186;59.472;18.048;2023-08-06T13:53:42;18.20;99.90
10282;DHT22;5186;59.472;18.048;2023-08-06T13:56:09;18.20;99.90
10282;DHT22;5186;59.472;18.048;2023-08-06T13:58:38;18.20;99.90
10282;DHT22;5186;59.472;18.048;2023-08-06T14:01:04;18.20;99.90
10282;DHT22;5186;59.472;18.048;2023-08-06T14:03:30;18.10;99.90
10282;DHT22;5186;59.472;18.048;2023-08-06T14:05:55;18.10;99.90
10282;DHT22;5186;59.472;18.048;2023-08-06T14:08:22;18.10;99.90
10282;DHT22;5186;59.472;18.048;2023-08-06T14:10:48;18.00;99.90
10282;DHT22;5186;59.472;18.048;2023-08-06T14:13:14;18.10;99.90
10282;DHT22;5186;59.472;18.048;2023-08-06T14:15:40;18.00;99.90
10282;DHT22;5186;59.472;18.048;2023-08-06T14:18:08;18.00;99.90
10282;DHT22;5186;59.472;18.048;2023-08-06T14:20:34;18.00;99.90
10282;DHT22;5186;59.472;18.048;2023-08-06T14:23:00;18.00;99.90
10282;DHT22;5186;59.472;18.048;2023-08-06T14:25:26;17.90;99.90
10282;DHT22;5186;59.472;18.048;2023-08-06T14:27:52;17.90;99.90
10282;DHT22;5186;59.472;18.048;2023-08-06T14:30:18;18.00;99.90
10282;DHT22;5186;59.472;18.048;2023-08-06T14:32:43;17.90;99.90
10282;DHT22;5186;59.472;18.048;2023-08-06T14:35:09;17.90;99.90
10282;DHT22;5186;59.472;18.048;2023-08-06T14:37:35;17.90;99.90
10282;DHT22;5186;59.472;18.048;2023-08-06T14:40:00;17.90;99.90
10282;DHT22;5186;59.472;18.048;2023-08-06T14:42:26;17.80;99.90
10282;DHT22;5186;59.472;18.048;2023-08-06T14:44:52;17.70;99.90
10282;DHT22;5186;59.472;18.048;2023-08-06T14:47:17;17.80;99.90
10282;DHT22;5186;59.472;18.048;2023-08-06T14:49:43;17.80;99.90
10282;DHT22;5186;59.472;18.048;2023-08-06T14:52:08;17.70;99.90
10282;DHT22;5186;59.472;18.048;2023-08-06T14:54:34;17.70;99.90
10282;DHT22;5186;59.472;18.048;2023-08-06T14:56:59;17.70;99.90
10282;DHT22;5186;59.472;18.048;2023-08-06T14:59:25;17.70;99.90
10282;DHT22;5186;59.472;18.048;2023-08-06T15:01:50;17.60;99.90
10282;DHT22;5186;59.472;18.048;2023-08-06T15:04:17;17.60;99.90
10282;DHT22;5186;59.472;18.048;2023-08-06T15:06:44;17.60;99.90
10282;DHT22;5186;59.472;18.048;2023-08-06T15:09:09;17.60;99.90
10282;DHT22;5186;59.472;18.048;2023-08-06T15:11:35;17.60;99.90
10282;DHT22;5186;59.472;18.048;2023-08-06T15:14:00;17.60;99.90
10282;DHT22;5186;59.472;18.048;2023-08-06T15:16:26;17.60;99.90
10282;DHT22;5186;59.472;18.048;2023-08-06T15:18:52;17.60;99.90
10282;DHT22;5186;59.472;18.048;2023-08-06T15:21:18;17.60;99.90
10282;DHT22;5186;59.472;18.048;2023-08-06T15:23:43;17.60;99.90
10282;DHT22;5186;59.472;18.048;2023-08-06T15:26:09;17.60;99.90
10282;DHT22;5186;59.472;18.048;2023-08-06T15:28:34;17.60;99.90
10282;DHT22;5186;59.472;18.048;2023-08-06T15:31:01;17.60;99.90